MMPB/PBC METAR and TAF weather

Enter ICAO airport designator
Station Type Date Time Source
MMPB METAR 2021/05/15 22:45 UTC NOAA

MMPB 152245Z 00000KT 10SM SCT020 BKN100 22/09 A3025 RMK 8/230 METAR MMPS 152243Z 25005KT 15SM SCT020TCU BKN100 31/25 A2981 RMK 8/230


Station Type Date Time Source
MMPB Decoded METAR 2021/05/15 22:45 UTC NOAA

Puebla, Pue., Mexico (MMPB) 19-03N 098-10W
May 15, 2021 - 06:45 PM EDT / 2021.05.15 2245 UTC
Wind: Calm:0
Visibility: 10 mile(s):0
Sky conditions: mostly cloudy
Weather: Towering cumulus clouds observed
Temperature: 71 F (22 C)
Dew Point: 48 F (9 C)
Relative Humidity: 43%
Pressure (altimeter): 30.25 in. Hg (1024 hPa)
ob: MMPB 152245Z 00000KT 10SM SCT020 BKN100 22/09 A3025 RMK 8/230 METAR MMPS 152243Z 25005KT 15SM SCT020TCU BKN100 31/25 A2981 RMK 8/230
cycle: 23

Station Type Date Time Source
MMPB TAF 2021/05/15 18:35 UTC NOAA

TAF MMPB 151631Z 1518/1618 23010KT P6SM SCT020 BKN080 BKN250
BECMG 1520/1521 BKN020CB BKN250
TEMPO 1522/1602 3SM TSRA
FM160300 15005KT 6SM HZ SCT020 BKN080 BKN250
BECMG 1610/1611 4SM BR HZ
FM161700 20008KT 6SM HZ SCT020 BKN250

Example: see airport list